sensor_id;sensor_type;location;lat;lon;timestamp;P1;durP1;ratioP1;P2;durP2;ratioP2
59408;SDS011;45213;32.654;-115.458;2022-08-03T00:01:44;3.50;;;1.60;;
59408;SDS011;45213;32.654;-115.458;2022-08-03T00:04:11;2.53;;;1.38;;
59408;SDS011;45213;32.654;-115.458;2022-08-03T00:06:37;5.13;;;1.42;;
59408;SDS011;45213;32.654;-115.458;2022-08-03T00:09:04;8.00;;;1.40;;
59408;SDS011;45213;32.654;-115.458;2022-08-03T00:11:31;6.50;;;1.98;;
59408;SDS011;45213;32.654;-115.458;2022-08-03T00:13:59;4.95;;;1.30;;
59408;SDS011;45213;32.654;-115.458;2022-08-03T00:16:25;3.22;;;1.38;;
59408;SDS011;45213;32.654;-115.458;2022-08-03T00:18:52;2.90;;;1.25;;
59408;SDS011;45213;32.654;-115.458;2022-08-03T00:21:19;3.67;;;1.35;;
59408;SDS011;45213;32.654;-115.458;2022-08-03T00:23:45;4.30;;;1.83;;
59408;SDS011;45213;32.654;-115.458;2022-08-03T00:26:12;4.03;;;1.52;;
59408;SDS011;45213;32.654;-115.458;2022-08-03T00:28:39;8.82;;;2.05;;
59408;SDS011;45213;32.654;-115.458;2022-08-03T00:31:06;9.38;;;1.70;;
59408;SDS011;45213;32.654;-115.458;2022-08-03T00:33:33;1.95;;;1.20;;
59408;SDS011;45213;32.654;-115.458;2022-08-03T00:35:59;5.60;;;1.60;;
59408;SDS011;45213;32.654;-115.458;2022-08-03T00:38:26;5.55;;;1.30;;
59408;SDS011;45213;32.654;-115.458;2022-08-03T00:40:53;5.13;;;1.70;;
59408;SDS011;45213;32.654;-115.458;2022-08-03T00:43:23;5.72;;;1.50;;
59408;SDS011;45213;32.654;-115.458;2022-08-03T00:45:52;5.25;;;1.48;;
59408;SDS011;45213;32.654;-115.458;2022-08-03T00:48:21;4.85;;;1.70;;
59408;SDS011;45213;32.654;-115.458;2022-08-03T00:50:50;5.55;;;1.50;;
59408;SDS011;45213;32.654;-115.458;2022-08-03T00:53:20;3.78;;;1.50;;
59408;SDS011;45213;32.654;-115.458;2022-08-03T00:55:47;5.30;;;1.37;;
59408;SDS011;45213;32.654;-115.458;2022-08-03T00:58:13;2.75;;;1.35;;
59408;SDS011;45213;32.654;-115.458;2022-08-03T01:00:40;10.98;;;1.75;;
59408;SDS011;45213;32.654;-115.458;2022-08-03T01:03:07;6.28;;;1.60;;
59408;SDS011;45213;32.654;-115.458;2022-08-03T01:05:44;6.93;;;1.75;;
59408;SDS011;45213;32.654;-115.458;2022-08-03T01:11:30;5.75;;;1.60;;
59408;SDS011;45213;32.654;-115.458;2022-08-03T01:14:05;6.35;;;1.70;;
59408;SDS011;45213;32.654;-115.458;2022-08-03T01:24:58;5.00;;;1.58;;
59408;SDS011;45213;32.654;-115.458;2022-08-03T01:30:17;7.47;;;1.67;;
59408;SDS011;45213;32.654;-115.458;2022-08-03T01:32:54;4.97;;;1.40;;
59408;SDS011;45213;32.654;-115.458;2022-08-03T01:35:38;4.93;;;1.70;;
59408;SDS011;45213;32.654;-115.458;2022-08-03T01:38:14;9.07;;;1.90;;
59408;SDS011;45213;32.654;-115.458;2022-08-03T01:41:10;4.25;;;1.80;;
59408;SDS011;45213;32.654;-115.458;2022-08-03T01:43:41;5.00;;;1.50;;
59408;SDS011;45213;32.654;-115.458;2022-08-03T01:46:10;4.20;;;1.58;;
59408;SDS011;45213;32.654;-115.458;2022-08-03T01:48:38;4.88;;;1.52;;
59408;SDS011;45213;32.654;-115.458;2022-08-03T01:51:07;5.90;;;1.40;;
59408;SDS011;45213;32.654;-115.458;2022-08-03T01:53:35;4.43;;;1.50;;
59408;SDS011;45213;32.654;-115.458;2022-08-03T01:56:07;6.32;;;2.00;;
59408;SDS011;45213;32.654;-115.458;2022-08-03T01:58:35;5.55;;;1.75;;
59408;SDS011;45213;32.654;-115.458;2022-08-03T02:01:06;5.97;;;1.83;;
59408;SDS011;45213;32.654;-115.458;2022-08-03T02:03:37;9.90;;;2.22;;
59408;SDS011;45213;32.654;-115.458;2022-08-03T02:06:11;9.65;;;1.70;;
59408;SDS011;45213;32.654;-115.458;2022-08-03T02:08:39;7.07;;;1.77;;
59408;SDS011;45213;32.654;-115.458;2022-08-03T02:11:06;9.88;;;1.73;;
59408;SDS011;45213;32.654;-115.458;2022-08-03T02:13:33;6.82;;;2.05;;
59408;SDS011;45213;32.654;-115.458;2022-08-03T02:16:01;5.05;;;1.58;;
59408;SDS011;45213;32.654;-115.458;2022-08-03T02:18:31;3.03;;;1.40;;
59408;SDS011;45213;32.654;-115.458;2022-08-03T02:21:01;4.28;;;1.70;;
59408;SDS011;45213;32.654;-115.458;2022-08-03T02:23:29;7.97;;;2.35;;
59408;SDS011;45213;32.654;-115.458;2022-08-03T02:25:57;6.32;;;1.95;;
59408;SDS011;45213;32.654;-115.458;2022-08-03T02:28:31;8.40;;;2.38;;
59408;SDS011;45213;32.654;-115.458;2022-08-03T02:31:06;10.52;;;2.15;;
59408;SDS011;45213;32.654;-115.458;2022-08-03T02:33:55;9.03;;;2.20;;
59408;SDS011;45213;32.654;-115.458;2022-08-03T02:36:30;11.55;;;2.50;;
59408;SDS011;45213;32.654;-115.458;2022-08-03T02:39:02;12.95;;;2.58;;
59408;SDS011;45213;32.654;-115.458;2022-08-03T02:41:31;10.13;;;2.03;;
59408;SDS011;45213;32.654;-115.458;2022-08-03T02:44:06;10.68;;;2.17;;
59408;SDS011;45213;32.654;-115.458;2022-08-03T02:46:38;9.30;;;1.77;;
59408;SDS011;45213;32.654;-115.458;2022-08-03T02:49:09;6.05;;;2.17;;
59408;SDS011;45213;32.654;-115.458;2022-08-03T02:51:38;8.20;;;1.95;;
59408;SDS011;45213;32.654;-115.458;2022-08-03T02:54:06;8.93;;;2.30;;
59408;SDS011;45213;32.654;-115.458;2022-08-03T02:56:34;5.57;;;1.83;;
59408;SDS011;45213;32.654;-115.458;2022-08-03T02:59:03;9.73;;;1.90;;
59408;SDS011;45213;32.654;-115.458;2022-08-03T03:01:31;5.22;;;2.08;;
59408;SDS011;45213;32.654;-115.458;2022-08-03T03:03:58;8.07;;;1.77;;
59408;SDS011;45213;32.654;-115.458;2022-08-03T03:06:25;5.70;;;2.20;;
59408;SDS011;45213;32.654;-115.458;2022-08-03T03:08:53;7.60;;;2.10;;
59408;SDS011;45213;32.654;-115.458;2022-08-03T03:11:22;7.70;;;2.10;;
59408;SDS011;45213;32.654;-115.458;2022-08-03T03:13:50;8.32;;;2.10;;
59408;SDS011;45213;32.654;-115.458;2022-08-03T03:16:17;5.45;;;2.22;;
59408;SDS011;45213;32.654;-115.458;2022-08-03T03:18:46;9.25;;;2.47;;
59408;SDS011;45213;32.654;-115.458;2022-08-03T03:21:15;10.80;;;2.03;;
59408;SDS011;45213;32.654;-115.458;2022-08-03T03:23:44;9.02;;;2.08;;
59408;SDS011;45213;32.654;-115.458;2022-08-03T03:26:12;6.32;;;2.35;;
59408;SDS011;45213;32.654;-115.458;2022-08-03T03:28:43;9.05;;;2.30;;
59408;SDS011;45213;32.654;-115.458;2022-08-03T03:31:09;5.38;;;2.15;;
59408;SDS011;45213;32.654;-115.458;2022-08-03T03:33:37;7.93;;;2.22;;
59408;SDS011;45213;32.654;-115.458;2022-08-03T03:36:04;10.98;;;2.00;;
59408;SDS011;45213;32.654;-115.458;2022-08-03T03:38:32;8.98;;;2.05;;
59408;SDS011;45213;32.654;-115.458;2022-08-03T03:40:58;12.57;;;2.70;;
59408;SDS011;45213;32.654;-115.458;2022-08-03T03:43:26;4.88;;;2.70;;
59408;SDS011;45213;32.654;-115.458;2022-08-03T03:45:54;2.92;;;1.80;;
59408;SDS011;45213;32.654;-115.458;2022-08-03T03:48:22;8.85;;;2.10;;
59408;SDS011;45213;32.654;-115.458;2022-08-03T03:50:50;7.95;;;2.65;;
59408;SDS011;45213;32.654;-115.458;2022-08-03T03:53:17;4.45;;;1.90;;
59408;SDS011;45213;32.654;-115.458;2022-08-03T03:55:44;4.03;;;2.05;;
59408;SDS011;45213;32.654;-115.458;2022-08-03T03:58:11;4.32;;;2.25;;
59408;SDS011;45213;32.654;-115.458;2022-08-03T04:00:38;5.70;;;2.35;;
59408;SDS011;45213;32.654;-115.458;2022-08-03T04:03:04;3.45;;;1.85;;
59408;SDS011;45213;32.654;-115.458;2022-08-03T04:05:31;8.73;;;2.42;;
59408;SDS011;45213;32.654;-115.458;2022-08-03T04:08:16;8.43;;;2.35;;
59408;SDS011;45213;32.654;-115.458;2022-08-03T04:13:46;5.72;;;2.38;;
59408;SDS011;45213;32.654;-115.458;2022-08-03T04:16:26;5.18;;;2.38;;
59408;SDS011;45213;32.654;-115.458;2022-08-03T04:19:07;4.15;;;2.17;;
59408;SDS011;45213;32.654;-115.458;2022-08-03T04:21:37;10.90;;;3.05;;
59408;SDS011;45213;32.654;-115.458;2022-08-03T04:24:08;7.22;;;2.63;;
59408;SDS011;45213;32.654;-115.458;2022-08-03T04:26:38;7.40;;;2.38;;
59408;SDS011;45213;32.654;-115.458;2022-08-03T04:29:06;5.88;;;2.20;;
59408;SDS011;45213;32.654;-115.458;2022-08-03T04:31:36;6.68;;;2.53;;
59408;SDS011;45213;32.654;-115.458;2022-08-03T04:34:04;2.97;;;1.98;;
59408;SDS011;45213;32.654;-115.458;2022-08-03T04:36:32;4.65;;;2.60;;
59408;SDS011;45213;32.654;-115.458;2022-08-03T04:42:07;7.80;;;1.95;;
59408;SDS011;45213;32.654;-115.458;2022-08-03T04:44:38;6.77;;;2.77;;
59408;SDS011;45213;32.654;-115.458;2022-08-03T04:47:07;7.00;;;1.95;;
59408;SDS011;45213;32.654;-115.458;2022-08-03T04:49:37;3.67;;;1.95;;
59408;SDS011;45213;32.654;-115.458;2022-08-03T04:52:06;7.07;;;2.47;;
59408;SDS011;45213;32.654;-115.458;2022-08-03T04:54:44;4.45;;;2.00;;
59408;SDS011;45213;32.654;-115.458;2022-08-03T04:57:12;5.60;;;1.70;;
59408;SDS011;45213;32.654;-115.458;2022-08-03T04:59:38;3.42;;;1.73;;
59408;SDS011;45213;32.654;-115.458;2022-08-03T05:02:05;3.60;;;2.15;;
59408;SDS011;45213;32.654;-115.458;2022-08-03T05:04:35;2.75;;;1.75;;
59408;SDS011;45213;32.654;-115.458;2022-08-03T05:07:05;4.35;;;1.83;;
59408;SDS011;45213;32.654;-115.458;2022-08-03T05:09:32;9.20;;;2.53;;
59408;SDS011;45213;32.654;-115.458;2022-08-03T05:11:59;4.38;;;1.88;;
59408;SDS011;45213;32.654;-115.458;2022-08-03T05:14:26;5.25;;;1.67;;
59408;SDS011;45213;32.654;-115.458;2022-08-03T05:16:53;8.45;;;2.10;;
59408;SDS011;45213;32.654;-115.458;2022-08-03T05:19:19;6.53;;;1.55;;
59408;SDS011;45213;32.654;-115.458;2022-08-03T05:21:46;4.75;;;2.00;;
59408;SDS011;45213;32.654;-115.458;2022-08-03T05:24:12;7.15;;;1.80;;
59408;SDS011;45213;32.654;-115.458;2022-08-03T05:26:39;3.00;;;1.50;;
59408;SDS011;45213;32.654;-115.458;2022-08-03T05:29:06;6.25;;;1.60;;
59408;SDS011;45213;32.654;-115.458;2022-08-03T05:31:33;5.30;;;1.63;;
59408;SDS011;45213;32.654;-115.458;2022-08-03T05:33:59;3.95;;;1.20;;
59408;SDS011;45213;32.654;-115.458;2022-08-03T05:36:26;1.98;;;1.20;;
59408;SDS011;45213;32.654;-115.458;2022-08-03T05:38:53;49.40;;;3.03;;
59408;SDS011;45213;32.654;-115.458;2022-08-03T05:41:20;3.58;;;1.52;;
59408;SDS011;45213;32.654;-115.458;2022-08-03T05:43:46;9.23;;;2.22;;
59408;SDS011;45213;32.654;-115.458;2022-08-03T05:46:13;3.80;;;1.98;;
59408;SDS011;45213;32.654;-115.458;2022-08-03T05:48:40;3.03;;;1.58;;
59408;SDS011;45213;32.654;-115.458;2022-08-03T05:51:07;5.65;;;1.90;;
59408;SDS011;45213;32.654;-115.458;2022-08-03T05:53:37;5.00;;;1.55;;
59408;SDS011;45213;32.654;-115.458;2022-08-03T05:56:22;2.95;;;1.23;;
59408;SDS011;45213;32.654;-115.458;2022-08-03T05:58:49;3.00;;;1.33;;
59408;SDS011;45213;32.654;-115.458;2022-08-03T06:01:17;2.05;;;1.50;;
59408;SDS011;45213;32.654;-115.458;2022-08-03T06:03:48;14.25;;;1.75;;
59408;SDS011;45213;32.654;-115.458;2022-08-03T06:06:16;3.90;;;1.50;;
59408;SDS011;45213;32.654;-115.458;2022-08-03T06:08:43;4.80;;;1.40;;
59408;SDS011;45213;32.654;-115.458;2022-08-03T06:11:14;4.93;;;1.50;;
59408;SDS011;45213;32.654;-115.458;2022-08-03T06:13:41;6.03;;;1.42;;
59408;SDS011;45213;32.654;-115.458;2022-08-03T06:16:08;5.00;;;1.70;;
59408;SDS011;45213;32.654;-115.458;2022-08-03T06:18:35;2.60;;;1.20;;
59408;SDS011;45213;32.654;-115.458;2022-08-03T06:21:02;3.60;;;1.50;;
59408;SDS011;45213;32.654;-115.458;2022-08-03T06:23:29;2.97;;;1.70;;
59408;SDS011;45213;32.654;-115.458;2022-08-03T06:25:55;5.43;;;1.92;;
59408;SDS011;45213;32.654;-115.458;2022-08-03T06:28:22;4.75;;;1.48;;
59408;SDS011;45213;32.654;-115.458;2022-08-03T06:30:49;3.47;;;1.48;;
59408;SDS011;45213;32.654;-115.458;2022-08-03T06:33:16;2.55;;;1.20;;
59408;SDS011;45213;32.654;-115.458;2022-08-03T06:35:42;5.90;;;1.70;;
59408;SDS011;45213;32.654;-115.458;2022-08-03T06:38:09;6.68;;;1.67;;
59408;SDS011;45213;32.654;-115.458;2022-08-03T06:40:36;3.58;;;1.73;;
59408;SDS011;45213;32.654;-115.458;2022-08-03T06:43:04;3.90;;;1.92;;
59408;SDS011;45213;32.654;-115.458;2022-08-03T06:45:32;4.68;;;2.30;;
59408;SDS011;45213;32.654;-115.458;2022-08-03T06:48:04;4.75;;;1.65;;
59408;SDS011;45213;32.654;-115.458;2022-08-03T06:50:36;4.22;;;2.03;;
59408;SDS011;45213;32.654;-115.458;2022-08-03T06:53:04;5.40;;;1.60;;
59408;SDS011;45213;32.654;-115.458;2022-08-03T06:55:31;4.38;;;1.55;;
59408;SDS011;45213;32.654;-115.458;2022-08-03T06:57:58;6.97;;;1.73;;
59408;SDS011;45213;32.654;-115.458;2022-08-03T07:00:24;4.65;;;1.55;;
59408;SDS011;45213;32.654;-115.458;2022-08-03T07:02:52;5.10;;;1.67;;
59408;SDS011;45213;32.654;-115.458;2022-08-03T07:05:22;5.57;;;1.88;;
59408;SDS011;45213;32.654;-115.458;2022-08-03T07:07:49;4.00;;;1.63;;
59408;SDS011;45213;32.654;-115.458;2022-08-03T07:10:19;5.05;;;1.73;;
59408;SDS011;45213;32.654;-115.458;2022-08-03T07:12:46;9.60;;;2.00;;
59408;SDS011;45213;32.654;-115.458;2022-08-03T07:15:12;4.18;;;1.60;;
59408;SDS011;45213;32.654;-115.458;2022-08-03T07:17:39;3.05;;;1.55;;
59408;SDS011;45213;32.654;-115.458;2022-08-03T07:20:06;4.45;;;1.63;;
59408;SDS011;45213;32.654;-115.458;2022-08-03T07:22:33;6.07;;;1.70;;
59408;SDS011;45213;32.654;-115.458;2022-08-03T07:25:01;4.50;;;1.70;;
59408;SDS011;45213;32.654;-115.458;2022-08-03T07:27:28;4.00;;;1.63;;
59408;SDS011;45213;32.654;-115.458;2022-08-03T07:29:55;4.32;;;1.30;;
59408;SDS011;45213;32.654;-115.458;2022-08-03T07:32:23;4.32;;;1.60;;
59408;SDS011;45213;32.654;-115.458;2022-08-03T07:34:50;3.80;;;1.33;;
59408;SDS011;45213;32.654;-115.458;2022-08-03T07:37:17;4.13;;;1.60;;
59408;SDS011;45213;32.654;-115.458;2022-08-03T07:39:44;3.55;;;1.45;;
59408;SDS011;45213;32.654;-115.458;2022-08-03T07:42:10;4.72;;;1.70;;
59408;SDS011;45213;32.654;-115.458;2022-08-03T07:44:37;4.30;;;1.58;;
59408;SDS011;45213;32.654;-115.458;2022-08-03T07:47:04;2.13;;;1.20;;
59408;SDS011;45213;32.654;-115.458;2022-08-03T07:49:31;5.03;;;1.63;;
59408;SDS011;45213;32.654;-115.458;2022-08-03T07:52:00;6.13;;;1.60;;
59408;SDS011;45213;32.654;-115.458;2022-08-03T07:54:45;2.28;;;1.38;;
59408;SDS011;45213;32.654;-115.458;2022-08-03T07:57:12;3.05;;;1.30;;
59408;SDS011;45213;32.654;-115.458;2022-08-03T07:59:38;2.85;;;1.33;;
59408;SDS011;45213;32.654;-115.458;2022-08-03T08:02:05;2.25;;;1.40;;
59408;SDS011;45213;32.654;-115.458;2022-08-03T08:04:32;3.38;;;1.67;;
59408;SDS011;45213;32.654;-115.458;2022-08-03T08:06:59;3.00;;;1.30;;
59408;SDS011;45213;32.654;-115.458;2022-08-03T08:09:28;2.45;;;1.40;;
59408;SDS011;45213;32.654;-115.458;2022-08-03T08:11:55;4.20;;;1.65;;
59408;SDS011;45213;32.654;-115.458;2022-08-03T08:14:21;5.53;;;1.50;;
59408;SDS011;45213;32.654;-115.458;2022-08-03T08:16:48;3.70;;;1.80;;
59408;SDS011;45213;32.654;-115.458;2022-08-03T08:19:15;5.20;;;1.70;;
59408;SDS011;45213;32.654;-115.458;2022-08-03T08:21:42;3.13;;;1.30;;
59408;SDS011;45213;32.654;-115.458;2022-08-03T08:24:09;3.60;;;1.85;;
59408;SDS011;45213;32.654;-115.458;2022-08-03T08:26:36;6.95;;;1.73;;
59408;SDS011;45213;32.654;-115.458;2022-08-03T08:29:03;3.03;;;1.73;;
59408;SDS011;45213;32.654;-115.458;2022-08-03T08:31:31;6.43;;;1.70;;
59408;SDS011;45213;32.654;-115.458;2022-08-03T08:33:57;2.90;;;1.60;;
59408;SDS011;45213;32.654;-115.458;2022-08-03T08:36:24;3.90;;;1.95;;
59408;SDS011;45213;32.654;-115.458;2022-08-03T08:38:51;6.05;;;1.77;;
59408;SDS011;45213;32.654;-115.458;2022-08-03T08:41:17;4.18;;;1.58;;
59408;SDS011;45213;32.654;-115.458;2022-08-03T08:43:44;4.40;;;1.75;;
59408;SDS011;45213;32.654;-115.458;2022-08-03T08:46:12;4.88;;;2.03;;
59408;SDS011;45213;32.654;-115.458;2022-08-03T08:48:40;5.38;;;1.85;;
59408;SDS011;45213;32.654;-115.458;2022-08-03T08:51:08;3.72;;;1.75;;
59408;SDS011;45213;32.654;-115.458;2022-08-03T08:53:40;3.27;;;1.80;;
59408;SDS011;45213;32.654;-115.458;2022-08-03T08:56:12;2.67;;;1.55;;
59408;SDS011;45213;32.654;-115.458;2022-08-03T08:58:43;5.93;;;2.28;;
59408;SDS011;45213;32.654;-115.458;2022-08-03T09:01:18;4.00;;;2.15;;
59408;SDS011;45213;32.654;-115.458;2022-08-03T09:03:45;6.30;;;2.50;;
59408;SDS011;45213;32.654;-115.458;2022-08-03T09:06:12;9.95;;;3.17;;
59408;SDS011;45213;32.654;-115.458;2022-08-03T09:08:39;5.43;;;3.00;;
59408;SDS011;45213;32.654;-115.458;2022-08-03T09:11:06;7.32;;;3.17;;
59408;SDS011;45213;32.654;-115.458;2022-08-03T09:13:33;9.90;;;2.75;;
59408;SDS011;45213;32.654;-115.458;2022-08-03T09:16:19;9.50;;;3.22;;
59408;SDS011;45213;32.654;-115.458;2022-08-03T09:18:48;9.48;;;3.10;;
59408;SDS011;45213;32.654;-115.458;2022-08-03T09:21:23;12.60;;;3.10;;
59408;SDS011;45213;32.654;-115.458;2022-08-03T09:23:52;9.45;;;2.85;;
59408;SDS011;45213;32.654;-115.458;2022-08-03T09:26:27;8.60;;;3.30;;
59408;SDS011;45213;32.654;-115.458;2022-08-03T09:28:59;7.93;;;2.55;;
59408;SDS011;45213;32.654;-115.458;2022-08-03T09:31:38;9.25;;;3.35;;
59408;SDS011;45213;32.654;-115.458;2022-08-03T09:34:10;6.65;;;3.60;;
59408;SDS011;45213;32.654;-115.458;2022-08-03T09:36:42;6.40;;;3.22;;
59408;SDS011;45213;32.654;-115.458;2022-08-03T09:39:20;6.35;;;2.90;;
59408;SDS011;45213;32.654;-115.458;2022-08-03T09:44:39;6.70;;;3.05;;
59408;SDS011;45213;32.654;-115.458;2022-08-03T09:47:13;11.23;;;3.55;;
59408;SDS011;45213;32.654;-115.458;2022-08-03T09:49:41;8.45;;;2.92;;
59408;SDS011;45213;32.654;-115.458;2022-08-03T09:52:21;7.13;;;3.22;;
59408;SDS011;45213;32.654;-115.458;2022-08-03T09:54:59;7.32;;;2.75;;
59408;SDS011;45213;32.654;-115.458;2022-08-03T09:57:28;5.80;;;2.88;;
59408;SDS011;45213;32.654;-115.458;2022-08-03T10:00:10;6.22;;;2.92;;
59408;SDS011;45213;32.654;-115.458;2022-08-03T10:02:42;7.05;;;3.28;;
59408;SDS011;45213;32.654;-115.458;2022-08-03T10:05:11;8.43;;;2.83;;
59408;SDS011;45213;32.654;-115.458;2022-08-03T10:07:45;10.30;;;3.38;;
59408;SDS011;45213;32.654;-115.458;2022-08-03T10:10:15;7.13;;;2.70;;
59408;SDS011;45213;32.654;-115.458;2022-08-03T10:12:43;5.20;;;2.50;;
59408;SDS011;45213;32.654;-115.458;2022-08-03T10:15:10;6.28;;;3.20;;
59408;SDS011;45213;32.654;-115.458;2022-08-03T10:17:37;7.40;;;2.80;;
59408;SDS011;45213;32.654;-115.458;2022-08-03T10:20:04;15.73;;;3.65;;
59408;SDS011;45213;32.654;-115.458;2022-08-03T10:22:33;10.63;;;3.03;;
59408;SDS011;45213;32.654;-115.458;2022-08-03T10:25:19;9.88;;;3.08;;
59408;SDS011;45213;32.654;-115.458;2022-08-03T10:27:46;22.27;;;3.92;;
59408;SDS011;45213;32.654;-115.458;2022-08-03T10:30:16;4.97;;;2.67;;
59408;SDS011;45213;32.654;-115.458;2022-08-03T10:33:06;5.55;;;2.30;;
59408;SDS011;45213;32.654;-115.458;2022-08-03T10:35:34;5.60;;;2.83;;
59408;SDS011;45213;32.654;-115.458;2022-08-03T10:38:07;7.32;;;3.40;;
59408;SDS011;45213;32.654;-115.458;2022-08-03T10:40:37;5.72;;;3.00;;
59408;SDS011;45213;32.654;-115.458;2022-08-03T10:43:11;10.32;;;4.07;;
59408;SDS011;45213;32.654;-115.458;2022-08-03T10:45:47;5.22;;;2.42;;
59408;SDS011;45213;32.654;-115.458;2022-08-03T10:48:15;5.88;;;2.80;;
59408;SDS011;45213;32.654;-115.458;2022-08-03T10:50:44;7.15;;;2.72;;
59408;SDS011;45213;32.654;-115.458;2022-08-03T10:53:16;5.80;;;2.40;;
59408;SDS011;45213;32.654;-115.458;2022-08-03T10:56:03;24.58;;;3.92;;
59408;SDS011;45213;32.654;-115.458;2022-08-03T10:58:49;18.17;;;3.13;;
59408;SDS011;45213;32.654;-115.458;2022-08-03T11:01:18;12.18;;;2.90;;
59408;SDS011;45213;32.654;-115.458;2022-08-03T11:06:31;9.25;;;3.10;;
59408;SDS011;45213;32.654;-115.458;2022-08-03T11:11:42;4.43;;;2.20;;
59408;SDS011;45213;32.654;-115.458;2022-08-03T11:16:49;4.70;;;2.25;;
59408;SDS011;45213;32.654;-115.458;2022-08-03T11:20:05;5.50;;;2.55;;
59408;SDS011;45213;32.654;-115.458;2022-08-03T11:22:25;5.35;;;2.33;;
59408;SDS011;45213;32.654;-115.458;2022-08-03T11:25:19;6.88;;;2.35;;
59408;SDS011;45213;32.654;-115.458;2022-08-03T11:27:45;6.45;;;2.53;;
59408;SDS011;45213;32.654;-115.458;2022-08-03T11:35:16;9.35;;;2.97;;
59408;SDS011;45213;32.654;-115.458;2022-08-03T11:43:08;7.88;;;2.75;;
59408;SDS011;45213;32.654;-115.458;2022-08-03T11:48:11;10.10;;;2.70;;
59408;SDS011;45213;32.654;-115.458;2022-08-03T11:50:42;6.53;;;2.60;;
59408;SDS011;45213;32.654;-115.458;2022-08-03T11:53:13;6.25;;;2.58;;
59408;SDS011;45213;32.654;-115.458;2022-08-03T11:55:42;8.80;;;3.15;;
59408;SDS011;45213;32.654;-115.458;2022-08-03T11:58:17;6.10;;;2.58;;
59408;SDS011;45213;32.654;-115.458;2022-08-03T12:00:45;4.68;;;2.60;;
59408;SDS011;45213;32.654;-115.458;2022-08-03T12:03:13;4.70;;;2.45;;
59408;SDS011;45213;32.654;-115.458;2022-08-03T12:08:29;8.85;;;2.88;;
59408;SDS011;45213;32.654;-115.458;2022-08-03T12:10:59;6.78;;;2.78;;
59408;SDS011;45213;32.654;-115.458;2022-08-03T12:13:34;4.28;;;2.40;;
59408;SDS011;45213;32.654;-115.458;2022-08-03T12:16:18;5.50;;;2.65;;
59408;SDS011;45213;32.654;-115.458;2022-08-03T12:19:02;5.75;;;2.72;;
59408;SDS011;45213;32.654;-115.458;2022-08-03T12:21:31;5.75;;;2.83;;
59408;SDS011;45213;32.654;-115.458;2022-08-03T12:23:59;8.15;;;2.78;;
59408;SDS011;45213;32.654;-115.458;2022-08-03T12:26:27;7.82;;;2.90;;
59408;SDS011;45213;32.654;-115.458;2022-08-03T12:28:55;5.75;;;3.42;;
59408;SDS011;45213;32.654;-115.458;2022-08-03T12:31:22;7.25;;;2.95;;
59408;SDS011;45213;32.654;-115.458;2022-08-03T12:33:56;7.55;;;2.90;;
59408;SDS011;45213;32.654;-115.458;2022-08-03T12:36:29;9.85;;;3.33;;
59408;SDS011;45213;32.654;-115.458;2022-08-03T12:38:58;8.05;;;3.13;;
59408;SDS011;45213;32.654;-115.458;2022-08-03T12:41:29;6.20;;;2.80;;
59408;SDS011;45213;32.654;-115.458;2022-08-03T12:44:00;6.97;;;2.55;;
59408;SDS011;45213;32.654;-115.458;2022-08-03T12:46:31;8.82;;;2.95;;
59408;SDS011;45213;32.654;-115.458;2022-08-03T12:49:06;6.82;;;3.45;;
59408;SDS011;45213;32.654;-115.458;2022-08-03T12:51:37;9.48;;;3.10;;
59408;SDS011;45213;32.654;-115.458;2022-08-03T12:54:25;6.22;;;3.05;;
59408;SDS011;45213;32.654;-115.458;2022-08-03T12:59:31;10.30;;;3.35;;
59408;SDS011;45213;32.654;-115.458;2022-08-03T13:02:02;4.65;;;2.72;;
59408;SDS011;45213;32.654;-115.458;2022-08-03T13:04:33;11.52;;;3.53;;
59408;SDS011;45213;32.654;-115.458;2022-08-03T13:09:28;17.33;;;3.30;;
59408;SDS011;45213;32.654;-115.458;2022-08-03T13:12:11;8.57;;;3.28;;
59408;SDS011;45213;32.654;-115.458;2022-08-03T13:14:38;11.30;;;3.58;;
59408;SDS011;45213;32.654;-115.458;2022-08-03T13:17:05;11.18;;;3.03;;
59408;SDS011;45213;32.654;-115.458;2022-08-03T13:19:32;11.95;;;3.63;;
59408;SDS011;45213;32.654;-115.458;2022-08-03T13:22:09;8.27;;;3.30;;
59408;SDS011;45213;32.654;-115.458;2022-08-03T13:24:41;16.48;;;3.55;;
59408;SDS011;45213;32.654;-115.458;2022-08-03T13:27:08;9.85;;;3.08;;
59408;SDS011;45213;32.654;-115.458;2022-08-03T13:29:35;8.48;;;3.28;;
59408;SDS011;45213;32.654;-115.458;2022-08-03T13:32:02;13.18;;;3.42;;
59408;SDS011;45213;32.654;-115.458;2022-08-03T13:34:30;8.85;;;3.20;;
59408;SDS011;45213;32.654;-115.458;2022-08-03T13:36:57;10.35;;;3.08;;
59408;SDS011;45213;32.654;-115.458;2022-08-03T13:39:24;13.18;;;3.00;;
59408;SDS011;45213;32.654;-115.458;2022-08-03T13:41:50;8.18;;;2.10;;
59408;SDS011;45213;32.654;-115.458;2022-08-03T13:44:17;11.38;;;2.92;;
59408;SDS011;45213;32.654;-115.458;2022-08-03T13:46:44;5.82;;;2.60;;
59408;SDS011;45213;32.654;-115.458;2022-08-03T13:49:12;6.35;;;2.58;;
59408;SDS011;45213;32.654;-115.458;2022-08-03T13:51:39;9.15;;;2.40;;
59408;SDS011;45213;32.654;-115.458;2022-08-03T13:54:07;6.85;;;2.13;;
59408;SDS011;45213;32.654;-115.458;2022-08-03T13:56:36;10.80;;;2.90;;
59408;SDS011;45213;32.654;-115.458;2022-08-03T13:59:02;8.10;;;2.60;;
59408;SDS011;45213;32.654;-115.458;2022-08-03T14:01:29;13.98;;;3.15;;
59408;SDS011;45213;32.654;-115.458;2022-08-03T14:03:55;7.78;;;2.75;;
59408;SDS011;45213;32.654;-115.458;2022-08-03T14:06:23;7.40;;;2.63;;
59408;SDS011;45213;32.654;-115.458;2022-08-03T14:08:50;13.85;;;3.63;;
59408;SDS011;45213;32.654;-115.458;2022-08-03T14:11:17;11.77;;;3.30;;
59408;SDS011;45213;32.654;-115.458;2022-08-03T14:13:44;12.02;;;2.90;;
59408;SDS011;45213;32.654;-115.458;2022-08-03T14:16:10;7.15;;;2.80;;
59408;SDS011;45213;32.654;-115.458;2022-08-03T14:18:37;9.90;;;2.88;;
59408;SDS011;45213;32.654;-115.458;2022-08-03T14:21:04;9.27;;;3.10;;
59408;SDS011;45213;32.654;-115.458;2022-08-03T14:23:31;16.08;;;2.78;;
59408;SDS011;45213;32.654;-115.458;2022-08-03T14:25:58;13.55;;;3.05;;
59408;SDS011;45213;32.654;-115.458;2022-08-03T14:28:25;12.32;;;2.70;;
59408;SDS011;45213;32.654;-115.458;2022-08-03T14:30:52;11.77;;;2.92;;
59408;SDS011;45213;32.654;-115.458;2022-08-03T14:33:20;15.02;;;3.50;;
59408;SDS011;45213;32.654;-115.458;2022-08-03T14:35:48;10.25;;;2.80;;
59408;SDS011;45213;32.654;-115.458;2022-08-03T14:38:15;17.25;;;3.45;;
59408;SDS011;45213;32.654;-115.458;2022-08-03T14:40:42;11.18;;;2.63;;
59408;SDS011;45213;32.654;-115.458;2022-08-03T14:43:09;10.88;;;3.90;;
59408;SDS011;45213;32.654;-115.458;2022-08-03T14:45:36;13.27;;;3.03;;
59408;SDS011;45213;32.654;-115.458;2022-08-03T14:48:04;9.88;;;3.33;;
59408;SDS011;45213;32.654;-115.458;2022-08-03T14:50:31;15.85;;;3.88;;
59408;SDS011;45213;32.654;-115.458;2022-08-03T14:52:57;12.75;;;3.10;;
59408;SDS011;45213;32.654;-115.458;2022-08-03T14:55:24;12.93;;;3.45;;
59408;SDS011;45213;32.654;-115.458;2022-08-03T14:57:51;14.35;;;3.58;;
59408;SDS011;45213;32.654;-115.458;2022-08-03T15:00:17;14.00;;;3.10;;
59408;SDS011;45213;32.654;-115.458;2022-08-03T15:02:44;14.45;;;2.75;;
59408;SDS011;45213;32.654;-115.458;2022-08-03T15:05:11;12.93;;;2.80;;
59408;SDS011;45213;32.654;-115.458;2022-08-03T15:07:39;8.27;;;2.20;;
59408;SDS011;45213;32.654;-115.458;2022-08-03T15:10:06;3.95;;;2.45;;
59408;SDS011;45213;32.654;-115.458;2022-08-03T15:12:33;7.25;;;3.00;;